createdAt,value
2018-07-05T00:01:33.691Z,92.16
2018-07-05T00:04:14.458Z,92.29
2018-07-05T00:06:55.649Z,92.05
2018-07-05T00:09:36.840Z,92.40
2018-07-05T00:12:18.258Z,92.58
2018-07-05T00:14:58.708Z,92.38
2018-07-05T00:17:39.753Z,91.69
2018-07-05T00:20:22.125Z,91.69
2018-07-05T00:23:03.542Z,91.74
2018-07-05T00:25:44.930Z,91.89
2018-07-05T00:28:26.176Z,91.94
2018-07-05T00:31:07.138Z,92.12
2018-07-05T00:33:48.554Z,92.93
2018-07-05T00:36:30.275Z,92.81
2018-07-05T00:39:11.852Z,92.25
2018-07-05T00:41:53.242Z,92.23
2018-07-05T00:44:34.468Z,92.50
2018-07-05T00:47:16.005Z,92.74
2018-07-05T00:49:57.244Z,92.62
2018-07-05T00:52:38.598Z,92.18
2018-07-05T00:55:20.153Z,92.36
2018-07-05T00:58:01.350Z,92.55
2018-07-05T01:00:42.728Z,92.72
2018-07-05T01:03:23.777Z,92.38
2018-07-05T01:06:05.140Z,92.67
2018-07-05T01:08:46.620Z,92.98
2018-07-05T01:11:27.962Z,92.94
2018-07-05T01:14:08.874Z,93.17
2018-07-05T01:16:50.350Z,92.71
2018-07-05T01:19:31.243Z,93.33
2018-07-05T01:22:11.927Z,92.98
2018-07-05T01:24:53.166Z,92.71
2018-07-05T01:27:37.199Z,91.94
2018-07-05T01:30:19.693Z,92.49
2018-07-05T01:33:00.777Z,92.96
2018-07-05T01:35:42.293Z,92.90
2018-07-05T01:38:23.140Z,92.65
2018-07-05T01:41:04.418Z,93.36
2018-07-05T01:43:45.834Z,92.81
2018-07-05T01:46:26.878Z,92.74
2018-07-05T01:49:08.251Z,93.08
2018-07-05T01:51:49.658Z,92.71
2018-07-05T01:54:30.884Z,93.09
2018-07-05T01:57:12.010Z,92.91
2018-07-05T01:59:53.216Z,92.52
2018-07-05T02:02:34.367Z,93.14
2018-07-05T02:05:15.674Z,93.00
2018-07-05T02:07:56.975Z,93.14
2018-07-05T02:10:38.526Z,92.83
2018-07-05T02:13:19.919Z,92.67
2018-07-05T02:16:01.340Z,93.10
2018-07-05T02:18:42.047Z,93.57
2018-07-05T02:21:23.246Z,93.89
2018-07-05T02:24:04.232Z,93.42
2018-07-05T02:26:45.609Z,92.80
2018-07-05T02:29:26.395Z,93.45
2018-07-05T02:32:07.557Z,93.71
2018-07-05T02:34:48.527Z,93.64
2018-07-05T02:37:34.833Z,93.39
2018-07-05T02:40:15.292Z,93.25
2018-07-05T02:42:56.377Z,93.23
2018-07-05T02:45:37.602Z,93.43
2018-07-05T02:48:18.629Z,93.63
2018-07-05T02:50:59.636Z,93.88
2018-07-05T02:53:41.050Z,93.51
2018-07-05T02:56:21.930Z,93.63
2018-07-05T02:59:03.277Z,92.99
2018-07-05T03:01:44.696Z,93.26
2018-07-05T03:04:26.233Z,93.47
2018-07-05T03:07:07.442Z,93.86
2018-07-05T03:09:48.978Z,93.73
2018-07-05T03:12:30.229Z,93.55
2018-07-05T03:15:11.301Z,93.72
2018-07-05T03:17:53.098Z,94.24
2018-07-05T03:20:33.711Z,93.70
2018-07-05T03:23:14.907Z,94.08
2018-07-05T03:25:55.850Z,94.29
2018-07-05T03:28:36.949Z,94.46
2018-07-05T03:31:17.737Z,93.90
2018-07-05T03:33:58.927Z,94.50
2018-07-05T03:36:40.300Z,94.03
2018-07-05T03:39:20.945Z,94.22
2018-07-05T03:42:02.280Z,94.20
2018-07-05T03:44:43.721Z,93.66
2018-07-05T03:47:24.947Z,94.07
2018-07-05T03:50:06.495Z,93.74
2018-07-05T03:52:47.474Z,93.55
2018-07-05T03:55:28.752Z,93.93
2018-07-05T03:58:10.085Z,93.21
2018-07-05T04:00:51.164Z,93.11
2018-07-05T04:03:32.580Z,93.36
2018-07-05T04:06:13.500Z,92.90
2018-07-05T04:08:54.764Z,93.07
2018-07-05T04:11:35.812Z,93.96
2018-07-05T04:14:17.320Z,94.47
2018-07-05T04:16:58.299Z,94.62
2018-07-05T04:19:44.815Z,93.64
2018-07-05T04:22:25.833Z,93.45
2018-07-05T04:25:07.337Z,94.20
2018-07-05T04:27:47.993Z,93.50
2018-07-05T04:30:28.838Z,94.18
2018-07-05T04:33:10.019Z,93.21
2018-07-05T04:35:50.840Z,93.26
2018-07-05T04:38:32.290Z,94.24
2018-07-05T04:41:13.814Z,94.06
2018-07-05T04:43:55.202Z,93.03
2018-07-05T04:46:36.008Z,93.40
2018-07-05T04:49:17.576Z,93.49
2018-07-05T04:51:58.485Z,94.10
2018-07-05T04:54:39.791Z,94.37
2018-07-05T04:57:21.323Z,93.74
2018-07-05T05:00:02.711Z,93.10
2018-07-05T05:02:43.594Z,93.81
2018-07-05T05:05:24.520Z,94.02
2018-07-05T05:08:05.628Z,94.03
2018-07-05T05:10:46.407Z,93.95
2018-07-05T05:13:27.832Z,94.22
2018-07-05T05:16:09.250Z,94.20
2018-07-05T05:18:50.178Z,93.64
2018-07-05T05:21:31.168Z,93.22
2018-07-05T05:24:12.338Z,93.69
2018-07-05T05:26:53.497Z,92.75
2018-07-05T05:29:35.076Z,92.69
2018-07-05T05:32:16.456Z,92.70
2018-07-05T05:34:57.684Z,92.46
2018-07-05T05:37:39.225Z,92.56
2018-07-05T05:40:20.609Z,91.43
2018-07-05T05:43:01.581Z,91.08
2018-07-05T05:45:42.487Z,91.42
2018-07-05T05:48:23.522Z,91.04
2018-07-05T05:51:04.929Z,90.13
2018-07-05T05:53:46.165Z,90.04
2018-07-05T05:56:27.678Z,89.00
2018-07-05T05:59:09.077Z,88.90
2018-07-05T06:01:50.467Z,88.70
2018-07-05T06:04:31.682Z,87.75
2018-07-05T06:07:12.138Z,87.55
2018-07-05T06:09:53.799Z,87.59
2018-07-05T06:12:35.028Z,87.63
2018-07-05T06:15:16.598Z,86.40
2018-07-05T06:17:57.951Z,85.80
2018-07-05T06:20:38.895Z,85.39
2018-07-05T06:23:20.207Z,85.92
2018-07-05T06:26:01.276Z,85.12
2018-07-05T06:28:41.951Z,85.53
2018-07-05T06:31:23.298Z,86.12
2018-07-05T06:34:04.265Z,84.89
2018-07-05T06:36:45.195Z,85.75
2018-07-05T06:39:26.432Z,85.60
2018-07-05T06:42:07.457Z,84.84
2018-07-05T06:44:48.930Z,85.47
2018-07-05T06:47:30.255Z,84.25
2018-07-05T06:50:11.293Z,84.25
2018-07-05T06:52:52.547Z,84.30
2018-07-05T06:55:33.209Z,85.01
2018-07-05T06:58:14.630Z,84.49
2018-07-05T07:00:56.024Z,84.47
2018-07-05T07:03:37.398Z,81.85
2018-07-05T07:06:18.635Z,81.66
2018-07-05T07:08:59.999Z,80.26
2018-07-05T07:11:41.088Z,79.96
2018-07-05T07:14:22.736Z,81.20
2018-07-05T07:17:04.325Z,81.30
2018-07-05T07:19:45.489Z,81.70
2018-07-05T07:22:27.025Z,81.53
2018-07-05T07:25:07.877Z,80.98
2018-07-05T07:27:49.041Z,81.36
2018-07-05T07:30:30.431Z,80.92
2018-07-05T07:33:11.377Z,81.92
2018-07-05T07:35:52.065Z,80.39
2018-07-05T07:38:33.197Z,80.68
2018-07-05T07:41:13.920Z,80.12
2018-07-05T07:43:42.499Z,79.80
2018-07-05T07:46:11.846Z,79.51
2018-07-05T07:48:40.792Z,79.39
2018-07-05T07:51:09.324Z,76.42
2018-07-05T07:53:38.161Z,74.42
2018-07-05T07:56:07.276Z,74.17
2018-07-05T07:58:36.221Z,73.66
2018-07-05T08:01:04.882Z,74.31
2018-07-05T08:03:34.010Z,75.86
2018-07-05T08:06:03.231Z,75.73
2018-07-05T08:08:31.875Z,75.45
2018-07-05T08:11:00.883Z,74.01
2018-07-05T08:13:29.979Z,74.56
2018-07-05T08:15:58.809Z,74.57
2018-07-05T08:18:27.907Z,72.45
2018-07-05T08:20:57.338Z,71.93
2018-07-05T08:23:26.517Z,70.64
2018-07-05T08:25:55.605Z,70.75
2018-07-05T08:28:24.550Z,69.86
2018-07-05T08:30:53.375Z,68.61
2018-07-05T08:33:22.467Z,68.21
2018-07-05T08:35:51.415Z,69.78
2018-07-05T08:38:20.030Z,66.98
2018-07-05T08:40:48.976Z,65.45
2018-07-05T08:43:17.890Z,63.21
2018-07-05T08:45:47.167Z,62.04
2018-07-05T08:48:16.243Z,62.62
2018-07-05T08:50:45.354Z,61.01
2018-07-05T08:53:14.045Z,61.55
2018-07-05T08:55:42.532Z,63.31
2018-07-05T08:58:11.827Z,63.11
2018-07-05T09:00:40.772Z,62.61
2018-07-05T09:03:09.895Z,59.83
2018-07-05T09:05:38.941Z,61.27
2018-07-05T09:08:07.777Z,60.19
2018-07-05T09:10:36.848Z,60.11
2018-07-05T09:13:06.110Z,60.92
2018-07-05T09:15:35.017Z,62.82
2018-07-05T09:18:04.081Z,61.71
2018-07-05T09:20:32.718Z,60.91
2018-07-05T09:23:01.954Z,62.06
2018-07-05T09:25:31.061Z,59.34
2018-07-05T09:28:00.132Z,57.86
2018-07-05T09:30:28.852Z,59.35
2018-07-05T09:32:57.917Z,58.04
2018-07-05T09:35:26.868Z,56.34
2018-07-05T09:37:55.701Z,56.22
2018-07-05T09:40:24.399Z,55.05
2018-07-05T09:42:52.980Z,56.39
2018-07-05T09:45:22.198Z,54.78
2018-07-05T09:47:51.106Z,54.71
2018-07-05T09:50:19.732Z,55.80
2018-07-05T09:52:48.688Z,57.16
2018-07-05T09:55:17.581Z,57.82
2018-07-05T09:57:46.451Z,59.74
2018-07-05T10:00:15.433Z,60.24
2018-07-05T10:02:44.649Z,60.30
2018-07-05T10:05:13.298Z,61.46
2018-07-05T10:07:42.037Z,60.12
2018-07-05T10:10:10.712Z,60.38
2018-07-05T10:12:39.639Z,60.15
2018-07-05T10:15:08.801Z,60.53
2018-07-05T10:17:37.893Z,59.83
2018-07-05T10:20:06.917Z,57.76
2018-07-05T10:22:35.727Z,59.67
2018-07-05T10:25:04.877Z,58.08
2018-07-05T10:27:33.569Z,59.03
2018-07-05T10:30:14.509Z,58.49
2018-07-05T10:32:55.964Z,59.98
2018-07-05T10:35:24.927Z,56.76
2018-07-05T10:37:57.326Z,60.75
2018-07-05T10:40:38.877Z,58.11
2018-07-05T10:43:19.754Z,57.99
2018-07-05T10:46:01.175Z,57.81
2018-07-05T10:48:42.551Z,59.22
2018-07-05T10:51:23.741Z,57.17
2018-07-05T10:54:05.295Z,56.32
2018-07-05T10:56:46.467Z,56.85
2018-07-05T10:59:27.656Z,55.34
2018-07-05T11:02:08.886Z,55.83
2018-07-05T11:04:49.775Z,52.45
2018-07-05T11:07:31.406Z,52.55
2018-07-05T11:10:12.633Z,54.87
2018-07-05T11:12:53.754Z,48.99
2018-07-05T11:15:35.002Z,51.40
2018-07-05T11:18:16.538Z,54.85
2018-07-05T11:20:57.931Z,53.12
2018-07-05T11:23:39.293Z,51.05
2018-07-05T11:26:20.270Z,52.47
2018-07-05T11:29:01.667Z,50.44
2018-07-05T11:31:42.231Z,50.57
2018-07-05T11:34:23.612Z,54.70
2018-07-05T11:37:05.001Z,52.30
2018-07-05T11:39:45.893Z,48.91
2018-07-05T11:42:27.242Z,48.98
2018-07-05T11:45:08.345Z,46.23
2018-07-05T11:47:49.772Z,47.83
2018-07-05T11:50:30.996Z,48.08
2018-07-05T11:53:12.860Z,50.23
2018-07-05T11:55:54.285Z,50.56
2018-07-05T11:58:35.713Z,47.40
2018-07-05T12:01:16.881Z,46.09
2018-07-05T12:03:58.285Z,46.78
2018-07-05T12:06:39.378Z,49.22
2018-07-05T12:09:20.809Z,49.69
2018-07-05T12:12:02.196Z,44.21
2018-07-05T12:14:43.108Z,45.96
2018-07-05T12:17:24.746Z,46.36
2018-07-05T12:20:06.344Z,47.54
2018-07-05T12:22:46.945Z,46.24
2018-07-05T12:25:27.863Z,46.51
2018-07-05T12:28:08.853Z,45.65
2018-07-05T12:30:49.820Z,46.51
2018-07-05T12:33:31.057Z,45.70
2018-07-05T12:36:12.446Z,47.85
2018-07-05T12:38:53.824Z,46.54
2018-07-05T12:41:34.964Z,40.88
2018-07-05T12:44:16.350Z,45.30
2018-07-05T12:46:57.732Z,45.48
2018-07-05T12:49:38.950Z,46.38
2018-07-05T12:52:19.429Z,45.39
2018-07-05T12:55:01.478Z,42.50
2018-07-05T12:57:42.861Z,45.60
2018-07-05T13:00:24.074Z,42.36
2018-07-05T13:03:04.813Z,40.97
2018-07-05T13:05:45.569Z,42.51
2018-07-05T13:08:27.140Z,41.24
2018-07-05T13:11:08.559Z,41.65
2018-07-05T13:13:49.760Z,43.32
2018-07-05T13:16:31.321Z,41.67
2018-07-05T13:19:12.634Z,42.72
2018-07-05T13:21:54.090Z,42.22
2018-07-05T13:24:35.075Z,42.81
2018-07-05T13:27:16.290Z,44.07
2018-07-05T13:29:57.695Z,46.49
2018-07-05T13:32:39.071Z,42.28
2018-07-05T13:35:20.025Z,45.48
2018-07-05T13:38:01.179Z,44.52
2018-07-05T13:40:42.361Z,46.33
2018-07-05T13:43:23.826Z,41.87
2018-07-05T13:46:05.197Z,41.79
2018-07-05T13:48:45.807Z,42.59
2018-07-05T13:51:27.594Z,50.20
2018-07-05T13:54:08.636Z,53.30
2018-07-05T13:56:49.457Z,54.72
2018-07-05T13:59:31.031Z,56.43
2018-07-05T14:02:12.312Z,56.66
2018-07-05T14:04:53.595Z,58.39
2018-07-05T14:07:34.669Z,56.87
2018-07-05T14:10:15.610Z,58.51
2018-07-05T14:12:57.541Z,58.97
2018-07-05T14:15:38.167Z,57.07
2018-07-05T14:18:20.825Z,55.70
2018-07-05T14:21:02.123Z,54.27
2018-07-05T14:23:43.385Z,52.82
2018-07-05T14:26:24.458Z,51.90
2018-07-05T14:29:06.106Z,48.62
2018-07-05T14:31:47.226Z,46.23
2018-07-05T14:34:28.570Z,46.41
2018-07-05T14:37:09.598Z,46.87
2018-07-05T14:39:50.979Z,46.92
2018-07-05T14:42:32.267Z,46.97
2018-07-05T14:45:13.759Z,46.33
2018-07-05T14:47:54.287Z,47.20
2018-07-05T14:50:35.710Z,46.71
2018-07-05T14:53:16.440Z,45.89
2018-07-05T14:55:58.064Z,44.74
2018-07-05T14:58:39.429Z,44.52
2018-07-05T15:01:20.640Z,41.14
2018-07-05T15:04:01.279Z,47.10
2018-07-05T15:06:42.781Z,47.23
2018-07-05T15:09:23.578Z,47.16
2018-07-05T15:12:04.968Z,48.64
2018-07-05T15:14:46.115Z,48.60
2018-07-05T15:17:28.239Z,50.31
2018-07-05T15:20:09.279Z,48.89
2018-07-05T15:22:50.441Z,49.27
2018-07-05T15:25:31.667Z,49.68
2018-07-05T15:28:12.870Z,50.56
2018-07-05T15:30:54.423Z,50.01
2018-07-05T15:33:35.404Z,48.65
2018-07-05T15:36:16.759Z,52.32
2018-07-05T15:38:58.174Z,53.92
2018-07-05T15:41:39.404Z,56.84
2018-07-05T15:44:20.933Z,56.80
2018-07-05T15:47:01.926Z,56.36
2018-07-05T15:49:43.155Z,58.61
2018-07-05T15:52:24.286Z,55.57
2018-07-05T15:55:05.501Z,57.35
2018-07-05T15:57:47.066Z,58.49
2018-07-05T16:00:28.272Z,60.66
2018-07-05T16:03:09.820Z,59.93
2018-07-05T16:05:51.046Z,61.45
2018-07-05T16:08:32.173Z,60.54
2018-07-05T16:11:13.540Z,58.81
2018-07-05T16:13:54.798Z,60.16
2018-07-05T16:16:36.266Z,61.12
2018-07-05T16:19:17.701Z,59.31
2018-07-05T16:21:58.669Z,59.66
2018-07-05T16:24:39.969Z,58.23
2018-07-05T16:27:20.954Z,58.22
2018-07-05T16:30:02.034Z,58.83
2018-07-05T16:32:43.414Z,59.05
2018-07-05T16:35:24.760Z,60.71
2018-07-05T16:38:06.030Z,58.73
2018-07-05T16:40:47.167Z,57.55
2018-07-05T16:43:28.311Z,57.87
2018-07-05T16:46:09.316Z,58.32
2018-07-05T16:48:50.702Z,58.78
2018-07-05T16:51:32.080Z,56.94
2018-07-05T16:54:13.057Z,59.01
2018-07-05T16:56:54.033Z,58.21
2018-07-05T16:59:35.402Z,59.11
2018-07-05T17:02:16.327Z,60.00
2018-07-05T17:04:57.266Z,61.27
2018-07-05T17:07:38.606Z,58.77
2018-07-05T17:10:19.695Z,60.26
2018-07-05T17:13:01.174Z,57.90
2018-07-05T17:15:42.413Z,57.25
2018-07-05T17:18:23.916Z,58.06
2018-07-05T17:21:05.107Z,58.26
2018-07-05T17:23:46.096Z,57.08
2018-07-05T17:26:26.763Z,57.33
2018-07-05T17:29:08.196Z,57.56
2018-07-05T17:31:49.599Z,57.35
2018-07-05T17:34:30.801Z,58.12
2018-07-05T17:37:12.186Z,58.46
2018-07-05T17:39:53.622Z,58.13
2018-07-05T17:42:34.304Z,59.30
2018-07-05T17:45:15.513Z,59.07
2018-07-05T17:47:57.069Z,59.91
2018-07-05T17:50:38.041Z,60.49
2018-07-05T17:53:19.016Z,60.55
2018-07-05T17:56:00.008Z,61.12
2018-07-05T17:58:42.087Z,61.46
2018-07-05T18:01:23.431Z,62.27
2018-07-05T18:04:04.974Z,62.82
2018-07-05T18:06:46.210Z,62.48
2018-07-05T18:09:27.335Z,63.17
2018-07-05T18:12:08.307Z,62.51
2018-07-05T18:14:49.060Z,63.04
2018-07-05T18:17:30.675Z,63.87
2018-07-05T18:20:11.914Z,63.29
2018-07-05T18:22:53.444Z,63.86
2018-07-05T18:25:34.814Z,64.10
2018-07-05T18:28:15.633Z,62.24
2018-07-05T18:30:57.178Z,61.63
2018-07-05T18:33:38.397Z,62.01
2018-07-05T18:36:19.451Z,61.88
2018-07-05T18:39:00.360Z,61.80
2018-07-05T18:41:41.760Z,61.59
2018-07-05T18:44:22.714Z,61.57
2018-07-05T18:47:03.876Z,62.91
2018-07-05T18:49:44.670Z,61.89
2018-07-05T18:52:26.058Z,61.72
2018-07-05T18:55:07.597Z,62.72
2018-07-05T18:57:48.500Z,63.78
2018-07-05T19:00:29.905Z,64.32
2018-07-05T19:03:10.456Z,64.66
2018-07-05T19:05:51.915Z,65.08
2018-07-05T19:08:33.315Z,64.93
2018-07-05T19:11:14.525Z,66.04
2018-07-05T19:13:55.648Z,66.39
2018-07-05T19:16:37.784Z,66.88
2018-07-05T19:19:19.235Z,67.05
2018-07-05T19:22:00.218Z,67.70
2018-07-05T19:24:41.373Z,67.85
2018-07-05T19:27:22.399Z,68.67
2018-07-05T19:30:03.972Z,69.57
2018-07-05T19:32:45.324Z,68.65
2018-07-05T19:35:26.629Z,68.12
2018-07-05T19:38:07.638Z,68.40
2018-07-05T19:40:48.979Z,69.12
2018-07-05T19:43:30.481Z,68.35
2018-07-05T19:46:11.417Z,69.17
2018-07-05T19:48:52.674Z,68.52
2018-07-05T19:51:33.791Z,68.04
2018-07-05T19:54:14.683Z,69.57
2018-07-05T19:56:56.174Z,70.56
2018-07-05T19:59:37.558Z,69.95
2018-07-05T20:02:18.945Z,69.29
2018-07-05T20:05:00.167Z,70.15
2018-07-05T20:07:41.717Z,70.69
2018-07-05T20:10:22.982Z,71.18
2018-07-05T20:13:04.757Z,71.28
2018-07-05T20:15:45.819Z,71.15
2018-07-05T20:18:26.847Z,70.14
2018-07-05T20:21:07.461Z,71.65
2018-07-05T20:23:49.043Z,70.54
2018-07-05T20:26:30.834Z,71.88
2018-07-05T20:29:12.021Z,72.20
2018-07-05T20:31:53.299Z,72.43
2018-07-05T20:34:34.738Z,71.97
2018-07-05T20:37:16.129Z,72.52
2018-07-05T20:39:57.106Z,73.04
2018-07-05T20:42:38.481Z,73.57
2018-07-05T20:45:19.875Z,73.66
2018-07-05T20:48:01.113Z,74.54
2018-07-05T20:50:42.644Z,74.15
2018-07-05T20:53:23.883Z,74.07
2018-07-05T20:56:05.417Z,73.66
2018-07-05T20:58:46.749Z,74.09
2018-07-05T21:01:28.142Z,74.20
2018-07-05T21:04:09.548Z,73.81
2018-07-05T21:06:50.822Z,73.67
2018-07-05T21:09:32.177Z,74.57
2018-07-05T21:12:13.716Z,74.42
2018-07-05T21:14:54.730Z,74.75
2018-07-05T21:17:35.671Z,75.95
2018-07-05T21:20:17.058Z,76.19
2018-07-05T21:22:58.313Z,75.10
2018-07-05T21:25:39.420Z,75.70
2018-07-05T21:28:20.705Z,75.86
2018-07-05T21:31:02.037Z,76.87
2018-07-05T21:33:43.417Z,76.10
2018-07-05T21:36:24.399Z,74.90
2018-07-05T21:39:05.904Z,75.39
2018-07-05T21:41:47.323Z,74.82
2018-07-05T21:44:29.031Z,75.12
2018-07-05T21:47:10.328Z,75.36
2018-07-05T21:49:51.701Z,75.85
2018-07-05T21:52:33.276Z,75.36
2018-07-05T21:55:13.634Z,76.15
2018-07-05T21:57:55.227Z,75.93
2018-07-05T22:00:36.973Z,75.40
2018-07-05T22:03:18.318Z,75.86
2018-07-05T22:05:59.379Z,75.37
2018-07-05T22:08:40.289Z,75.06
2018-07-05T22:11:21.733Z,75.77
2018-07-05T22:14:02.496Z,75.73
2018-07-05T22:16:49.827Z,76.36
2018-07-05T22:19:35.700Z,77.65
2018-07-05T22:22:21.608Z,78.43
2018-07-05T22:25:07.888Z,79.37
2018-07-05T22:27:53.683Z,80.86
2018-07-05T22:30:39.600Z,81.37
2018-07-05T22:33:21.489Z,82.07
2018-07-05T22:36:02.022Z,82.97
2018-07-05T22:38:43.246Z,83.92
2018-07-05T22:41:24.003Z,84.16
2018-07-05T22:44:05.234Z,83.78
2018-07-05T22:46:46.282Z,84.59
2018-07-05T22:49:27.400Z,84.71
2018-07-05T22:52:08.520Z,85.14
2018-07-05T22:54:49.489Z,85.43
2018-07-05T22:57:30.841Z,85.36
2018-07-05T23:00:11.876Z,86.00
2018-07-05T23:02:53.170Z,85.74
2018-07-05T23:05:34.159Z,86.37
2018-07-05T23:08:15.015Z,85.78
2018-07-05T23:10:56.076Z,85.94
2018-07-05T23:13:37.545Z,86.09
2018-07-05T23:16:18.510Z,86.28
2018-07-05T23:18:59.890Z,86.21
2018-07-05T23:21:40.878Z,86.37
2018-07-05T23:24:22.273Z,86.68
2018-07-05T23:27:03.965Z,86.84
2018-07-05T23:29:44.856Z,86.96
2018-07-05T23:32:25.855Z,87.32
2018-07-05T23:35:07.398Z,87.22
2018-07-05T23:37:48.638Z,87.28
2018-07-05T23:40:30.175Z,88.00
2018-07-05T23:43:11.555Z,87.88
2018-07-05T23:45:52.372Z,87.17
2018-07-05T23:48:33.947Z,88.16
2018-07-05T23:51:15.222Z,88.05
2018-07-05T23:53:57.095Z,87.87
2018-07-05T23:56:37.983Z,88.03
2018-07-05T23:59:19.300Z,88.23
